Time;durP1;ratioP1;P1;durP2;ratioP2;P2;SDS_P1;SDS_P2;PMS_P1;PMS_P2;Temp;Humidity;BMP_temperature;BMP_pressure;BME280_temperature;BME280_humidity;BME280_pressure;Samples;Min_cycle;Max_cycle;Signal;HPM_P1;HPM_P2
2023/04/11 04:44:52;;;;;;;15.00;9.90;;;;;;;7.56;90.24;99934.90;109500;1281;22793;-54
2023/04/11 04:47:23;;;;;;;17.60;8.80;;;;;;;7.60;90.28;99937.36;109807;1282;22369;-54
2023/04/11 04:49:55;;;;;;;14.90;8.80;;;;;;;7.66;90.45;99931.84;108161;1281;22529;-54
2023/04/11 04:52:24;;;;;;;14.10;7.90;;;;;;;7.73;90.21;99928.92;108000;1275;22581;-45
2023/04/11 04:54:59;;;;;;;18.10;8.10;;;;;;;7.81;90.10;99932.63;108088;1282;22298;-53
2023/04/11 04:57:30;;;;;;;13.30;7.90;;;;;;;7.89;89.65;99932.66;109783;1282;22313;-47
2023/04/11 05:00:10;;;;;;;9.90;7.30;;;;;;;7.99;89.57;99941.92;109752;1277;22311;-54
2023/04/11 05:02:42;;;;;;;21.60;8.20;;;;;;;8.09;89.59;99948.21;109629;1282;22282;-55
2023/04/11 05:05:12;;;;;;;11.60;6.60;;;;;;;8.19;89.60;99946.52;109582;1282;22227;-56
2023/04/11 05:07:41;;;;;;;8.20;6.30;;;;;;;8.30;89.52;99941.70;108729;1282;23246;-54
2023/04/11 05:10:11;;;;;;;14.40;6.80;;;;;;;8.41;89.08;99937.25;109370;1281;22429;-45
2023/04/11 05:12:40;;;;;;;19.10;7.90;;;;;;;8.50;88.58;99937.98;109600;1275;22364;-45
2023/04/11 05:15:10;;;;;;;11.30;7.00;;;;;;;8.58;88.45;99935.39;109672;1278;22244;-52
2023/04/11 05:17:43;;;;;;;13.50;7.30;;;;;;;8.67;87.53;99926.19;109055;1277;22326;-47
2023/04/11 05:20:12;;;;;;;10.40;7.10;;;;;;;8.72;86.95;99928.30;109443;1277;22749;-56
2023/04/11 05:22:42;;;;;;;14.10;6.50;;;;;;;8.77;86.71;99927.26;109485;1275;22404;-54
2023/04/11 05:25:10;;;;;;;10.30;6.10;;;;;;;8.80;86.75;99928.46;109602;1275;22156;-54
2023/04/11 05:27:43;;;;;;;;;;;;;;;8.83;86.66;99927.80;109332;1276;23239;-54
2023/04/11 05:30:12;;;;;;;12.60;6.50;;;;;;;8.86;86.44;99928.65;109420;1275;22393;-45
2023/04/11 05:32:49;;;;;;;13.70;6.00;;;;;;;8.88;86.67;99934.05;109523;1275;23002;-48
2023/04/11 05:40:13;;;;;;;13.90;6.10;;;;;;;8.95;86.74;99926.92;109457;1278;23082;-45
2023/04/11 05:44:09;;;;;;;17.70;6.20;;;;;;;8.97;86.63;99929.88;109436;1276;23183;-46
2023/04/11 05:47:14;;;;;;;11.70;6.00;;;;;;;8.99;86.67;99919.10;109539;1275;22940;-55
2023/04/11 05:50:34;;;;;;;10.40;5.60;;;;;;;9.01;86.55;99918.40;109335;1275;22861;-54
2023/04/11 05:53:03;;;;;;;12.80;6.20;;;;;;;9.04;86.42;99920.50;109581;1275;23345;-55
2023/04/11 05:55:49;;;;;;;13.00;6.00;;;;;;;9.07;86.74;99926.05;109529;1281;22877;-56
2023/04/11 05:58:24;;;;;;;9.40;6.50;;;;;;;9.10;86.57;99918.23;109065;1273;24193;-57
2023/04/11 06:01:06;;;;;;;12.90;6.70;;;;;;;9.11;86.52;99918.41;109459;1278;22409;-46
2023/04/11 06:03:35;;;;;;;16.30;6.80;;;;;;;9.11;87.06;99911.80;109488;1281;22429;-54
2023/04/11 06:06:06;;;;;;;11.60;6.30;;;;;;;9.09;87.72;99913.88;109077;1275;22395;-45
2023/04/11 06:08:35;;;;;;;15.20;6.10;;;;;;;9.07;88.30;99915.62;109354;1274;22334;-55
2023/04/11 06:11:03;;;;;;;8.40;6.40;;;;;;;9.05;88.59;99914.77;109536;1280;22472;-55
2023/04/11 06:13:35;;;;;;;10.50;5.50;;;;;;;9.03;88.96;99914.39;109736;1277;22426;-54
2023/04/11 06:16:05;;;;;;;6.70;5.50;;;;;;;9.01;89.24;99913.54;108893;1275;24189;-54
2023/04/11 06:18:34;;;;;;;15.60;6.60;;;;;;;8.98;89.28;99911.77;109465;1274;22951;-45
2023/04/11 06:21:45;;;;;;;8.10;6.10;;;;;;;8.95;89.69;99910.92;108246;1275;22588;-54
2023/04/11 06:25:28;;;;;;;21.60;6.60;;;;;;;8.89;90.15;99905.18;109188;1275;22331;-54
2023/04/11 06:28:03;;;;;;;13.30;7.00;;;;;;;8.87;90.50;99898.21;109464;1278;23199;-55
2023/04/11 06:30:33;;;;;;;10.70;6.30;;;;;;;8.84;90.73;99899.09;109686;1275;22209;-45
2023/04/11 06:33:03;;;;;;;12.80;6.10;;;;;;;8.84;91.01;99898.56;109306;1276;22236;-47
2023/04/11 06:35:32;;;;;;;12.70;6.90;;;;;;;8.83;91.40;99896.66;109353;1276;22582;-46
2023/04/11 06:38:00;;;;;;;9.20;6.40;;;;;;;8.83;91.77;99901.53;109332;1281;22425;-54
2023/04/11 06:40:28;;;;;;;16.20;5.90;;;;;;;8.82;91.81;99897.18;108947;1275;22530;-45
2023/04/11 06:42:59;;;;;;;12.90;6.20;;;;;;;8.83;92.10;99894.23;109534;1280;22875;-45
2023/04/11 06:45:31;;;;;;;10.80;6.20;;;;;;;8.85;92.27;99895.25;108706;1275;22384;-53
2023/04/11 06:48:02;;;;;;;10.50;5.80;;;;;;;8.86;92.30;99889.52;108732;1279;22399;-53
2023/04/11 06:50:31;;;;;;;11.60;5.20;;;;;;;8.88;92.05;99890.23;109355;1277;22343;-44
2023/04/11 06:53:03;;;;;;;8.80;6.30;;;;;;;8.92;92.17;99889.17;108496;1276;22512;-53
2023/04/11 06:55:35;;;;;;;8.70;6.00;;;;;;;8.95;91.99;99889.01;109069;1264;22524;-54
2023/04/11 06:58:15;;;;;;;8.70;6.10;;;;;;;8.99;91.95;99887.79;108521;1277;24205;-45
2023/04/11 07:01:05;;;;;;;10.60;5.60;;;;;;;9.02;92.20;99885.34;108305;1282;22576;-47
2023/04/11 07:04:16;;;;;;;15.50;6.40;;;;;;;9.07;92.45;99885.01;108407;1278;22380;-46
2023/04/11 07:06:49;;;;;;;11.70;5.80;;;;;;;9.12;92.81;99882.91;108450;1277;22365;-45
2023/04/11 07:10:57;;;;;;;10.00;6.00;;;;;;;9.18;92.47;99883.08;109063;1278;22344;-46
2023/04/11 07:14:56;;;;;;;10.50;5.40;;;;;;;9.26;92.93;99879.94;109238;1279;22973;-53
2023/04/11 07:26:04;;;;;;;13.60;5.60;;;;;;;9.51;94.35;99874.33;108824;1276;23589;-47
2023/04/11 07:28:40;;;;;;;9.50;6.00;;;;;;;9.55;94.24;99866.48;108667;1278;22300;-46
2023/04/11 07:31:12;;;;;;;12.20;6.30;;;;;;;9.59;94.10;99866.99;109340;1280;23015;-54
2023/04/11 07:33:44;;;;;;;14.40;6.10;;;;;;;9.61;93.42;99861.06;109190;1276;23059;-56
2023/04/11 07:36:12;;;;;;;8.60;4.50;;;;;;;9.62;92.82;99859.48;109633;1284;23021;-54
2023/04/11 07:38:42;;;;;;;14.60;6.40;;;;;;;9.63;92.77;99860.20;109551;1277;22339;-45
2023/04/11 07:41:11;;;;;;;13.70;5.90;;;;;;;9.62;92.61;99856.88;108844;1281;26550;-56
2023/04/11 07:43:43;;;;;;;9.60;5.30;;;;;;;9.62;92.47;99854.27;108704;1277;22921;-45
2023/04/11 07:46:13;;;;;;;11.90;5.20;;;;;;;9.62;92.36;99856.70;107627;1278;22649;-56
2023/04/11 07:48:43;;;;;;;12.70;5.60;;;;;;;9.63;92.38;99856.54;109059;1276;22507;-46
2023/04/11 07:51:12;;;;;;;9.00;5.20;;;;;;;9.64;92.20;99852.36;108178;1277;22715;-44
2023/04/11 07:53:47;;;;;;;17.00;4.90;;;;;;;9.66;91.86;99849.90;108941;1277;23006;-54
2023/04/11 07:56:21;;;;;;;12.90;5.50;;;;;;;9.69;91.51;99853.73;108776;1277;24093;-44
2023/04/11 07:59:56;;;;;;;17.10;6.80;;;;;;;9.73;91.44;99853.35;108798;1280;23064;-46
2023/04/11 08:02:37;;;;;;;15.20;5.20;;;;;;;9.76;91.17;99852.48;109053;1276;22555;-56
2023/04/11 08:05:24;;;;;;;8.80;5.20;;;;;;;9.80;90.79;99857.17;109337;1277;22626;-47
2023/04/11 08:12:45;;;;;;;7.80;4.90;;;;;;;9.88;90.05;99846.68;109360;1277;23099;-46
2023/04/11 08:16:25;;;;;;;10.60;5.40;;;;;;;9.91;89.88;99843.70;109100;1277;23193;-54
2023/04/11 08:23:20;;;;;;;9.80;4.60;;;;;;;10.00;91.24;99837.76;109374;1273;23435;-45
2023/04/11 08:26:22;;;;;;;8.70;5.80;;;;;;;9.99;91.57;99829.57;109451;1277;22367;-47
2023/04/11 08:29:24;;;;;;;10.90;5.50;;;;;;;9.99;92.37;99819.28;108894;1277;22532;-54
2023/04/11 08:31:54;;;;;;;12.20;5.60;;;;;;;9.98;92.80;99815.80;109180;1274;22308;-46
2023/04/11 08:34:27;;;;;;;9.70;5.50;;;;;;;9.95;93.39;99813.02;108939;1282;23133;-56
2023/04/11 08:37:06;;;;;;;10.80;5.30;;;;;;;9.94;94.01;99803.11;109185;1278;22779;-46
2023/04/11 08:39:36;;;;;;;12.90;5.10;;;;;;;9.91;94.73;99804.16;108251;1278;22269;-45
2023/04/11 08:42:20;;;;;;;13.20;5.20;;;;;;;9.89;95.09;99799.82;109189;1277;22406;-55
2023/04/11 08:44:58;;;;;;;9.40;4.40;;;;;;;9.89;95.84;99795.30;108842;1277;22752;-56
2023/04/11 08:47:30;;;;;;;7.90;4.80;;;;;;;9.90;96.52;99797.72;108534;1281;22482;-54
2023/04/11 08:49:58;;;;;;;9.00;5.90;;;;;;;9.93;97.03;99789.88;108689;1276;22578;-55
2023/04/11 08:53:13;;;;;;;10.30;5.60;;;;;;;10.00;97.38;99780.42;108761;1278;22426;-55
2023/04/11 09:08:53;;;;;;;11.70;4.80;;;;;;;10.44;96.31;99761.33;107920;1275;24242;-45
2023/04/11 09:11:22;;;;;;;9.60;5.20;;;;;;;10.52;94.69;99758.13;109332;1277;22880;-45
2023/04/11 09:14:08;;;;;;;8.90;4.50;;;;;;;10.60;92.97;99750.38;108884;1277;22835;-45
2023/04/11 09:16:52;;;;;;;6.20;4.50;;;;;;;10.68;92.45;99746.66;109635;1278;22195;-46
2023/04/11 09:19:31;;;;;;;6.50;4.20;;;;;;;10.75;92.12;99747.65;107875;1260;24213;-53
2023/04/11 09:22:05;;;;;;;10.60;4.40;;;;;;;10.80;90.64;99742.88;108692;1280;22432;-45
2023/04/11 09:24:36;;;;;;;10.90;4.40;;;;;;;10.86;89.56;99735.85;107879;1282;23005;-46
2023/04/11 09:27:11;;;;;;;8.10;4.40;;;;;;;10.91;88.86;99733.52;107525;1281;23073;-54
2023/04/11 09:29:44;;;;;;;13.90;5.20;;;;;;;10.97;88.49;99732.25;109107;1275;22533;-54
2023/04/11 09:32:32;;;;;;;6.80;4.30;;;;;;;11.03;88.09;99730.44;109019;1275;22434;-45
2023/04/11 09:35:10;;;;;;;11.90;4.40;;;;;;;11.10;86.86;99722.50;109238;1276;22278;-53
2023/04/11 09:37:45;;;;;;;14.70;4.90;;;;;;;11.14;85.56;99716.17;108484;1277;24555;-55
2023/04/11 09:40:15;;;;;;;9.40;4.50;;;;;;;11.16;84.73;99715.80;109459;1276;22389;-55
2023/04/11 09:42:47;;;;;;;6.00;3.90;;;;;;;11.17;85.04;99709.32;108378;1278;22536;-49
2023/04/11 09:45:18;;;;;;;7.80;4.50;;;;;;;11.21;85.11;99706.67;109131;1280;22632;-54
2023/04/11 09:47:47;;;;;;;12.60;4.50;;;;;;;11.25;85.23;99696.31;109388;1282;22409;-46
2023/04/11 09:50:16;;;;;;;14.70;4.10;;;;;;;11.29;85.57;99688.23;109316;1275;23132;-54
2023/04/11 09:53:30;;;;;;;6.80;4.00;;;;;;;11.34;85.40;99681.90;109195;1275;24242;-52
2023/04/11 10:01:00;;;;;;;9.60;4.50;;;;;;;11.44;85.33;99691.02;109477;1277;22276;-44
2023/04/11 10:07:34;;;;;;;7.50;5.10;;;;;;;11.46;85.92;99679.45;109590;1275;22396;-46
2023/04/11 10:10:31;;;;;;;13.30;4.40;;;;;;;11.47;86.95;99670.53;109526;1281;22232;-45
2023/04/11 10:13:00;;;;;;;9.40;4.70;;;;;;;11.46;87.37;99669.31;109535;1282;22371;-45
2023/04/11 10:15:28;;;;;;;10.10;4.20;;;;;;;11.46;86.78;99669.84;109349;1278;22376;-47
2023/04/11 10:18:10;;;;;;;9.90;4.20;;;;;;;11.47;86.86;99665.48;109139;1278;22685;-46
2023/04/11 10:20:44;;;;;;;13.20;5.30;;;;;;;11.47;86.92;99653.60;108840;1278;22173;-53
2023/04/11 10:23:15;;;;;;;7.40;4.50;;;;;;;11.46;86.98;99652.21;109256;1278;22381;-55
2023/04/11 10:25:54;;;;;;;13.50;5.20;;;;;;;11.46;87.25;99645.05;108401;1278;26641;-56
2023/04/11 10:28:46;;;;;;;7.40;4.30;;;;;;;11.46;87.64;99635.80;108444;1275;23346;-47
2023/04/11 10:31:26;;;;;;;10.70;4.30;;;;;;;11.45;87.27;99629.35;108083;1276;26486;-55
2023/04/11 10:34:16;;;;;;;10.90;4.40;;;;;;;11.46;87.82;99627.41;108341;1275;25276;-56
2023/04/11 10:37:05;;;;;;;10.50;4.20;;;;;;;11.48;86.79;99627.73;108838;1280;22361;-47
2023/04/11 10:39:54;;;;;;;9.70;3.70;;;;;;;11.51;86.60;99628.39;109103;1280;22462;-46
2023/04/11 10:42:32;;;;;;;11.30;4.80;;;;;;;11.56;86.67;99621.52;108861;1280;22922;-56
2023/04/11 10:45:23;;;;;;;13.30;4.20;;;;;;;11.62;86.81;99615.14;108818;1279;23254;-47
2023/04/11 10:47:55;;;;;;;13.20;4.10;;;;;;;11.70;86.80;99601.39;109352;1278;23152;-46
2023/04/11 10:50:33;;;;;;;6.90;3.80;;;;;;;11.76;86.55;99595.52;109387;1278;22361;-55
2023/04/11 10:53:02;;;;;;;14.40;4.80;;;;;;;11.83;86.36;99591.95;109170;1282;25250;-52
2023/04/11 10:55:47;;;;;;;10.00;3.80;;;;;;;11.89;85.91;99595.88;108892;1280;23445;-47
2023/04/11 10:58:21;;;;;;;7.90;4.00;;;;;;;11.93;84.82;99581.48;108833;1280;23191;-46
2023/04/11 11:00:52;;;;;;;6.00;3.90;;;;;;;11.94;85.05;99573.77;109382;1283;22492;-46
2023/04/11 11:03:29;;;;;;;13.00;4.50;;;;;;;11.95;85.11;99577.08;109178;1286;165327;-53
2023/04/11 11:06:00;;;;;;;8.40;3.70;;;;;;;11.99;84.50;99570.02;109499;1286;23080;-45
2023/04/11 11:37:52;;;;;;;9.90;3.70;;;;;;;12.68;80.88;99542.48;106959;1275;22549;-54
2023/04/11 11:40:23;;;;;;;8.60;4.30;;;;;;;12.77;78.75;99527.25;108435;1277;22313;-52
2023/04/11 11:42:52;;;;;;;8.00;3.40;;;;;;;12.87;77.72;99514.27;107285;1282;25207;-46
2023/04/11 11:45:21;;;;;;;6.60;3.50;;;;;;;12.95;75.96;99506.38;107177;1277;22540;-52
2023/04/11 11:47:49;;;;;;;6.00;3.70;;;;;;;13.02;75.57;99500.80;108165;1281;22545;-49
2023/04/11 11:50:25;;;;;;;6.40;3.10;;;;;;;13.11;76.35;99499.56;107519;1283;23181;-53
2023/04/11 11:52:54;;;;;;;10.80;3.40;;;;;;;13.20;76.97;99499.02;107903;1283;22547;-53
2023/04/11 11:55:23;;;;;;;10.30;3.70;;;;;;;13.30;76.87;99492.83;107450;1283;22535;-56
2023/04/11 11:57:58;;;;;;;5.30;3.70;;;;;;;13.40;76.23;99484.73;109077;1283;22577;-54
2023/04/11 12:00:26;;;;;;;5.60;3.50;;;;;;;13.48;75.10;99480.66;109213;1283;22444;-47
2023/04/11 12:02:55;;;;;;;6.60;3.60;;;;;;;13.55;74.90;99475.59;109789;1277;22851;-47
2023/04/11 12:05:28;;;;;;;9.30;3.60;;;;;;;13.62;74.57;99474.02;109810;1282;22418;-46
2023/04/11 12:08:02;;;;;;;9.40;3.80;;;;;;;13.67;74.68;99468.09;109609;1283;22317;-46
2023/04/11 12:10:47;;;;;;;10.20;3.60;;;;;;;13.71;74.19;99467.65;109814;1283;22260;-52
2023/04/11 12:13:24;;;;;;;7.70;3.80;;;;;;;13.73;73.44;99464.61;109791;1283;22319;-54
2023/04/11 12:15:54;;;;;;;9.60;3.30;;;;;;;13.74;72.45;99464.95;109196;1283;22801;-46
2023/04/11 12:18:25;;;;;;;6.00;3.00;;;;;;;13.73;71.81;99461.44;109030;1283;22585;-46
2023/04/11 12:20:53;;;;;;;7.70;3.50;;;;;;;13.72;69.84;99454.81;108361;1283;22396;-53
